sensor_id;sensor_type;location;lat;lon;timestamp;P1;durP1;ratioP1;P2;durP2;ratioP2
8088;SDS011;57635;49.194;12.104;2023-05-10T00:01:40;5.00;;;4.70;;
8088;SDS011;57635;49.194;12.104;2023-05-10T00:04:08;5.03;;;4.73;;
8088;SDS011;57635;49.194;12.104;2023-05-10T00:06:36;3.97;;;3.77;;
8088;SDS011;57635;49.194;12.104;2023-05-10T00:09:03;4.73;;;4.43;;
8088;SDS011;57635;49.194;12.104;2023-05-10T00:11:31;4.73;;;4.33;;
8088;SDS011;57635;49.194;12.104;2023-05-10T00:14:00;4.87;;;4.33;;
8088;SDS011;57635;49.194;12.104;2023-05-10T00:16:28;4.70;;;4.40;;
8088;SDS011;57635;49.194;12.104;2023-05-10T00:18:55;4.40;;;3.93;;
8088;SDS011;57635;49.194;12.104;2023-05-10T00:21:23;4.87;;;4.37;;
8088;SDS011;57635;49.194;12.104;2023-05-10T00:23:51;4.67;;;4.17;;
8088;SDS011;57635;49.194;12.104;2023-05-10T00:26:18;3.70;;;3.50;;
8088;SDS011;57635;49.194;12.104;2023-05-10T00:28:46;3.93;;;3.63;;
8088;SDS011;57635;49.194;12.104;2023-05-10T00:31:15;4.47;;;4.03;;
8088;SDS011;57635;49.194;12.104;2023-05-10T00:33:43;4.47;;;4.07;;
8088;SDS011;57635;49.194;12.104;2023-05-10T00:36:10;4.40;;;4.10;;
8088;SDS011;57635;49.194;12.104;2023-05-10T00:38:38;4.27;;;4.07;;
8088;SDS011;57635;49.194;12.104;2023-05-10T00:41:06;4.50;;;4.20;;
8088;SDS011;57635;49.194;12.104;2023-05-10T00:43:34;4.60;;;4.30;;
8088;SDS011;57635;49.194;12.104;2023-05-10T00:46:02;4.83;;;4.40;;
8088;SDS011;57635;49.194;12.104;2023-05-10T00:48:31;4.93;;;4.53;;
8088;SDS011;57635;49.194;12.104;2023-05-10T00:51:00;4.33;;;4.03;;
8088;SDS011;57635;49.194;12.104;2023-05-10T00:53:28;4.83;;;4.47;;
8088;SDS011;57635;49.194;12.104;2023-05-10T00:55:59;4.73;;;4.43;;
8088;SDS011;57635;49.194;12.104;2023-05-10T00:58:27;5.13;;;4.70;;
8088;SDS011;57635;49.194;12.104;2023-05-10T01:00:57;4.20;;;4.00;;
8088;SDS011;57635;49.194;12.104;2023-05-10T01:03:25;4.83;;;4.43;;
8088;SDS011;57635;49.194;12.104;2023-05-10T01:05:54;4.53;;;4.23;;
8088;SDS011;57635;49.194;12.104;2023-05-10T01:08:22;5.63;;;5.10;;
8088;SDS011;57635;49.194;12.104;2023-05-10T01:10:49;6.07;;;5.33;;
8088;SDS011;57635;49.194;12.104;2023-05-10T01:13:30;5.60;;;5.10;;
8088;SDS011;57635;49.194;12.104;2023-05-10T01:15:59;5.13;;;4.80;;
8088;SDS011;57635;49.194;12.104;2023-05-10T01:18:29;5.07;;;4.70;;
8088;SDS011;57635;49.194;12.104;2023-05-10T01:21:06;4.47;;;4.17;;
8088;SDS011;57635;49.194;12.104;2023-05-10T01:23:45;4.80;;;4.50;;
8088;SDS011;57635;49.194;12.104;2023-05-10T01:26:49;5.03;;;4.63;;
8088;SDS011;57635;49.194;12.104;2023-05-10T01:29:32;4.80;;;4.50;;
8088;SDS011;57635;49.194;12.104;2023-05-10T01:32:20;5.53;;;5.10;;
8088;SDS011;57635;49.194;12.104;2023-05-10T01:34:53;4.77;;;4.47;;
8088;SDS011;57635;49.194;12.104;2023-05-10T01:37:25;4.93;;;4.63;;
8088;SDS011;57635;49.194;12.104;2023-05-10T01:39:58;4.87;;;4.57;;
8088;SDS011;57635;49.194;12.104;2023-05-10T01:42:29;4.40;;;4.10;;
8088;SDS011;57635;49.194;12.104;2023-05-10T01:45:01;7.20;;;4.47;;
8088;SDS011;57635;49.194;12.104;2023-05-10T01:47:35;9.53;;;4.97;;
8088;SDS011;57635;49.194;12.104;2023-05-10T01:50:06;5.23;;;4.83;;
8088;SDS011;57635;49.194;12.104;2023-05-10T01:52:38;5.57;;;4.53;;
8088;SDS011;57635;49.194;12.104;2023-05-10T01:55:11;5.23;;;4.83;;
8088;SDS011;57635;49.194;12.104;2023-05-10T01:57:42;4.47;;;4.17;;
8088;SDS011;57635;49.194;12.104;2023-05-10T02:00:11;4.80;;;4.50;;
8088;SDS011;57635;49.194;12.104;2023-05-10T02:02:42;4.77;;;4.47;;
8088;SDS011;57635;49.194;12.104;2023-05-10T02:05:13;4.90;;;4.40;;
8088;SDS011;57635;49.194;12.104;2023-05-10T02:07:41;4.93;;;4.53;;
8088;SDS011;57635;49.194;12.104;2023-05-10T02:10:09;4.63;;;4.30;;
8088;SDS011;57635;49.194;12.104;2023-05-10T02:12:39;4.90;;;4.53;;
8088;SDS011;57635;49.194;12.104;2023-05-10T02:15:10;5.63;;;5.23;;
8088;SDS011;57635;49.194;12.104;2023-05-10T02:17:39;4.70;;;4.50;;
8088;SDS011;57635;49.194;12.104;2023-05-10T02:20:09;4.83;;;4.53;;
8088;SDS011;57635;49.194;12.104;2023-05-10T02:22:37;4.43;;;4.03;;
8088;SDS011;57635;49.194;12.104;2023-05-10T02:25:07;5.33;;;4.93;;
8088;SDS011;57635;49.194;12.104;2023-05-10T02:27:36;5.70;;;5.20;;
8088;SDS011;57635;49.194;12.104;2023-05-10T02:30:05;5.43;;;5.07;;
8088;SDS011;57635;49.194;12.104;2023-05-10T02:32:33;4.80;;;4.50;;
8088;SDS011;57635;49.194;12.104;2023-05-10T02:35:02;5.80;;;5.40;;
8088;SDS011;57635;49.194;12.104;2023-05-10T02:37:31;4.23;;;4.00;;
8088;SDS011;57635;49.194;12.104;2023-05-10T02:40:00;5.27;;;4.93;;
8088;SDS011;57635;49.194;12.104;2023-05-10T02:42:30;5.07;;;4.73;;
8088;SDS011;57635;49.194;12.104;2023-05-10T02:45:00;5.10;;;4.80;;
8088;SDS011;57635;49.194;12.104;2023-05-10T02:47:29;5.00;;;4.70;;
8088;SDS011;57635;49.194;12.104;2023-05-10T02:49:57;5.90;;;5.50;;
8088;SDS011;57635;49.194;12.104;2023-05-10T02:52:26;5.30;;;5.00;;
8088;SDS011;57635;49.194;12.104;2023-05-10T02:55:00;5.93;;;5.47;;
8088;SDS011;57635;49.194;12.104;2023-05-10T02:57:31;5.90;;;5.50;;
8088;SDS011;57635;49.194;12.104;2023-05-10T03:00:00;7.17;;;6.57;;
8088;SDS011;57635;49.194;12.104;2023-05-10T03:02:30;7.20;;;6.50;;
8088;SDS011;57635;49.194;12.104;2023-05-10T03:04:58;6.17;;;5.60;;
8088;SDS011;57635;49.194;12.104;2023-05-10T03:07:26;6.40;;;5.87;;
8088;SDS011;57635;49.194;12.104;2023-05-10T03:09:53;6.17;;;5.57;;
8088;SDS011;57635;49.194;12.104;2023-05-10T03:12:23;6.03;;;5.47;;
8088;SDS011;57635;49.194;12.104;2023-05-10T03:14:59;5.83;;;5.33;;
8088;SDS011;57635;49.194;12.104;2023-05-10T03:17:29;7.30;;;6.80;;
8088;SDS011;57635;49.194;12.104;2023-05-10T03:19:58;6.27;;;5.77;;
8088;SDS011;57635;49.194;12.104;2023-05-10T03:22:33;6.17;;;5.70;;
8088;SDS011;57635;49.194;12.104;2023-05-10T03:25:04;6.47;;;5.97;;
8088;SDS011;57635;49.194;12.104;2023-05-10T03:27:36;6.27;;;5.77;;
8088;SDS011;57635;49.194;12.104;2023-05-10T03:30:07;6.30;;;5.90;;
8088;SDS011;57635;49.194;12.104;2023-05-10T03:32:36;7.10;;;6.50;;
8088;SDS011;57635;49.194;12.104;2023-05-10T03:35:06;7.47;;;6.87;;
8088;SDS011;57635;49.194;12.104;2023-05-10T03:37:34;6.43;;;5.83;;
8088;SDS011;57635;49.194;12.104;2023-05-10T03:40:02;7.30;;;6.60;;
8088;SDS011;57635;49.194;12.104;2023-05-10T03:42:30;7.00;;;6.40;;
8088;SDS011;57635;49.194;12.104;2023-05-10T03:45:00;6.20;;;5.73;;
8088;SDS011;57635;49.194;12.104;2023-05-10T03:47:27;6.87;;;6.37;;
8088;SDS011;57635;49.194;12.104;2023-05-10T03:49:56;7.07;;;6.47;;
8088;SDS011;57635;49.194;12.104;2023-05-10T03:52:23;7.07;;;6.57;;
8088;SDS011;57635;49.194;12.104;2023-05-10T03:54:51;7.90;;;7.00;;
8088;SDS011;57635;49.194;12.104;2023-05-10T03:57:19;7.20;;;6.60;;
8088;SDS011;57635;49.194;12.104;2023-05-10T03:59:46;7.90;;;7.23;;
8088;SDS011;57635;49.194;12.104;2023-05-10T04:02:16;8.23;;;7.63;;
8088;SDS011;57635;49.194;12.104;2023-05-10T04:04:43;7.57;;;7.07;;
8088;SDS011;57635;49.194;12.104;2023-05-10T04:07:11;7.77;;;7.17;;
8088;SDS011;57635;49.194;12.104;2023-05-10T04:09:39;7.83;;;7.33;;
8088;SDS011;57635;49.194;12.104;2023-05-10T04:12:07;8.00;;;7.33;;
8088;SDS011;57635;49.194;12.104;2023-05-10T04:14:36;7.63;;;7.03;;
8088;SDS011;57635;49.194;12.104;2023-05-10T04:17:04;8.13;;;7.30;;
8088;SDS011;57635;49.194;12.104;2023-05-10T04:19:33;7.90;;;7.30;;
8088;SDS011;57635;49.194;12.104;2023-05-10T04:22:01;8.13;;;7.43;;
8088;SDS011;57635;49.194;12.104;2023-05-10T04:24:30;8.03;;;7.47;;
8088;SDS011;57635;49.194;12.104;2023-05-10T04:26:57;9.23;;;8.33;;
8088;SDS011;57635;49.194;12.104;2023-05-10T04:29:25;8.00;;;7.40;;
8088;SDS011;57635;49.194;12.104;2023-05-10T04:31:53;8.20;;;7.60;;
8088;SDS011;57635;49.194;12.104;2023-05-10T04:34:22;8.63;;;7.77;;
8088;SDS011;57635;49.194;12.104;2023-05-10T04:36:52;9.63;;;8.73;;
8088;SDS011;57635;49.194;12.104;2023-05-10T04:39:19;8.60;;;7.87;;
8088;SDS011;57635;49.194;12.104;2023-05-10T04:41:47;8.90;;;8.10;;
8088;SDS011;57635;49.194;12.104;2023-05-10T04:44:15;9.43;;;8.53;;
8088;SDS011;57635;49.194;12.104;2023-05-10T04:46:43;8.63;;;7.93;;
8088;SDS011;57635;49.194;12.104;2023-05-10T04:49:10;8.63;;;7.90;;
8088;SDS011;57635;49.194;12.104;2023-05-10T04:51:38;9.87;;;8.97;;
8088;SDS011;57635;49.194;12.104;2023-05-10T04:54:07;8.80;;;8.10;;
8088;SDS011;57635;49.194;12.104;2023-05-10T04:56:35;8.67;;;7.87;;
8088;SDS011;57635;49.194;12.104;2023-05-10T04:59:03;9.30;;;8.47;;
8088;SDS011;57635;49.194;12.104;2023-05-10T05:01:31;9.50;;;8.57;;
8088;SDS011;57635;49.194;12.104;2023-05-10T05:03:58;10.20;;;9.40;;
8088;SDS011;57635;49.194;12.104;2023-05-10T05:06:26;9.83;;;8.77;;
8088;SDS011;57635;49.194;12.104;2023-05-10T05:08:54;9.63;;;8.73;;
8088;SDS011;57635;49.194;12.104;2023-05-10T05:11:23;9.17;;;8.47;;
8088;SDS011;57635;49.194;12.104;2023-05-10T05:13:51;9.60;;;8.70;;
8088;SDS011;57635;49.194;12.104;2023-05-10T05:16:19;9.90;;;9.00;;
8088;SDS011;57635;49.194;12.104;2023-05-10T05:18:47;9.43;;;8.70;;
8088;SDS011;57635;49.194;12.104;2023-05-10T05:21:15;9.63;;;8.73;;
8088;SDS011;57635;49.194;12.104;2023-05-10T05:23:43;8.60;;;8.00;;
8088;SDS011;57635;49.194;12.104;2023-05-10T05:26:11;9.27;;;8.57;;
8088;SDS011;57635;49.194;12.104;2023-05-10T05:28:40;9.57;;;8.63;;
8088;SDS011;57635;49.194;12.104;2023-05-10T05:31:08;9.90;;;8.93;;
8088;SDS011;57635;49.194;12.104;2023-05-10T05:33:36;9.87;;;8.97;;
8088;SDS011;57635;49.194;12.104;2023-05-10T05:36:05;8.57;;;7.97;;
8088;SDS011;57635;49.194;12.104;2023-05-10T05:38:33;10.67;;;9.67;;
8088;SDS011;57635;49.194;12.104;2023-05-10T05:41:01;11.00;;;9.97;;
8088;SDS011;57635;49.194;12.104;2023-05-10T05:43:29;9.77;;;9.07;;
8088;SDS011;57635;49.194;12.104;2023-05-10T05:45:58;9.03;;;8.33;;
8088;SDS011;57635;49.194;12.104;2023-05-10T05:48:26;9.07;;;8.37;;
8088;SDS011;57635;49.194;12.104;2023-05-10T05:50:54;8.77;;;8.13;;
8088;SDS011;57635;49.194;12.104;2023-05-10T05:53:23;9.30;;;8.60;;
8088;SDS011;57635;49.194;12.104;2023-05-10T05:55:51;9.77;;;8.97;;
8088;SDS011;57635;49.194;12.104;2023-05-10T05:58:20;9.27;;;8.67;;
8088;SDS011;57635;49.194;12.104;2023-05-10T06:00:48;10.10;;;9.30;;
8088;SDS011;57635;49.194;12.104;2023-05-10T06:03:17;9.80;;;8.77;;
8088;SDS011;57635;49.194;12.104;2023-05-10T06:05:46;9.73;;;8.93;;
8088;SDS011;57635;49.194;12.104;2023-05-10T06:08:14;9.73;;;8.93;;
8088;SDS011;57635;49.194;12.104;2023-05-10T06:10:41;9.97;;;9.07;;
8088;SDS011;57635;49.194;12.104;2023-05-10T06:13:09;10.07;;;9.27;;
8088;SDS011;57635;49.194;12.104;2023-05-10T06:15:37;10.27;;;9.23;;
8088;SDS011;57635;49.194;12.104;2023-05-10T06:18:05;9.83;;;9.10;;
8088;SDS011;57635;49.194;12.104;2023-05-10T06:20:34;10.50;;;9.60;;
8088;SDS011;57635;49.194;12.104;2023-05-10T06:23:02;11.53;;;10.53;;
8088;SDS011;57635;49.194;12.104;2023-05-10T06:25:30;10.23;;;9.27;;
8088;SDS011;57635;49.194;12.104;2023-05-10T06:27:57;10.70;;;9.60;;
8088;SDS011;57635;49.194;12.104;2023-05-10T06:30:26;10.47;;;9.37;;
8088;SDS011;57635;49.194;12.104;2023-05-10T06:32:55;9.77;;;9.03;;
8088;SDS011;57635;49.194;12.104;2023-05-10T06:35:23;9.70;;;8.90;;
8088;SDS011;57635;49.194;12.104;2023-05-10T06:37:52;9.47;;;8.63;;
8088;SDS011;57635;49.194;12.104;2023-05-10T06:40:20;9.93;;;9.10;;
8088;SDS011;57635;49.194;12.104;2023-05-10T06:42:48;10.40;;;9.70;;
8088;SDS011;57635;49.194;12.104;2023-05-10T06:45:16;10.60;;;9.63;;
8088;SDS011;57635;49.194;12.104;2023-05-10T06:47:44;10.10;;;9.20;;
8088;SDS011;57635;49.194;12.104;2023-05-10T06:50:12;10.97;;;10.03;;
8088;SDS011;57635;49.194;12.104;2023-05-10T06:52:39;10.33;;;9.40;;
8088;SDS011;57635;49.194;12.104;2023-05-10T06:55:09;10.80;;;9.83;;
8088;SDS011;57635;49.194;12.104;2023-05-10T06:57:37;10.67;;;9.87;;
8088;SDS011;57635;49.194;12.104;2023-05-10T07:00:05;10.63;;;9.67;;
8088;SDS011;57635;49.194;12.104;2023-05-10T07:02:35;10.97;;;10.17;;
8088;SDS011;57635;49.194;12.104;2023-05-10T07:05:04;10.13;;;9.33;;
8088;SDS011;57635;49.194;12.104;2023-05-10T07:07:32;11.43;;;10.43;;
8088;SDS011;57635;49.194;12.104;2023-05-10T07:10:00;10.70;;;9.90;;
8088;SDS011;57635;49.194;12.104;2023-05-10T07:12:30;10.77;;;9.97;;
8088;SDS011;57635;49.194;12.104;2023-05-10T07:14:58;10.43;;;9.63;;
8088;SDS011;57635;49.194;12.104;2023-05-10T07:17:26;11.23;;;10.33;;
8088;SDS011;57635;49.194;12.104;2023-05-10T07:19:54;10.73;;;9.93;;
8088;SDS011;57635;49.194;12.104;2023-05-10T07:22:21;10.77;;;9.97;;
8088;SDS011;57635;49.194;12.104;2023-05-10T07:24:49;10.20;;;9.43;;
8088;SDS011;57635;49.194;12.104;2023-05-10T07:27:17;11.40;;;10.50;;
8088;SDS011;57635;49.194;12.104;2023-05-10T07:29:46;10.70;;;9.90;;
8088;SDS011;57635;49.194;12.104;2023-05-10T07:32:14;10.33;;;9.53;;
8088;SDS011;57635;49.194;12.104;2023-05-10T07:34:42;10.60;;;9.70;;
8088;SDS011;57635;49.194;12.104;2023-05-10T07:37:10;9.83;;;9.03;;
8088;SDS011;57635;49.194;12.104;2023-05-10T07:39:38;9.73;;;8.93;;
8088;SDS011;57635;49.194;12.104;2023-05-10T07:42:05;9.60;;;8.93;;
8088;SDS011;57635;49.194;12.104;2023-05-10T07:44:34;9.47;;;8.67;;
8088;SDS011;57635;49.194;12.104;2023-05-10T07:47:03;9.07;;;8.47;;
8088;SDS011;57635;49.194;12.104;2023-05-10T07:49:31;9.50;;;8.80;;
8088;SDS011;57635;49.194;12.104;2023-05-10T07:51:59;8.97;;;8.27;;
8088;SDS011;57635;49.194;12.104;2023-05-10T07:54:27;10.23;;;9.33;;
8088;SDS011;57635;49.194;12.104;2023-05-10T07:56:54;9.27;;;8.43;;
8088;SDS011;57635;49.194;12.104;2023-05-10T07:59:22;9.70;;;8.90;;
8088;SDS011;57635;49.194;12.104;2023-05-10T08:01:50;8.97;;;8.37;;
8088;SDS011;57635;49.194;12.104;2023-05-10T08:04:19;8.70;;;8.03;;
8088;SDS011;57635;49.194;12.104;2023-05-10T08:06:47;10.07;;;9.13;;
8088;SDS011;57635;49.194;12.104;2023-05-10T08:09:15;7.43;;;6.93;;
8088;SDS011;57635;49.194;12.104;2023-05-10T08:11:44;7.53;;;7.03;;
8088;SDS011;57635;49.194;12.104;2023-05-10T08:14:11;8.37;;;7.57;;
8088;SDS011;57635;49.194;12.104;2023-05-10T08:16:39;8.30;;;7.70;;
8088;SDS011;57635;49.194;12.104;2023-05-10T08:19:07;8.20;;;7.60;;
8088;SDS011;57635;49.194;12.104;2023-05-10T08:21:37;6.77;;;6.37;;
8088;SDS011;57635;49.194;12.104;2023-05-10T08:24:06;8.00;;;7.30;;
8088;SDS011;57635;49.194;12.104;2023-05-10T08:26:34;7.87;;;7.37;;
8088;SDS011;57635;49.194;12.104;2023-05-10T08:29:02;8.37;;;7.77;;
8088;SDS011;57635;49.194;12.104;2023-05-10T08:31:30;7.43;;;6.73;;
8088;SDS011;57635;49.194;12.104;2023-05-10T08:33:58;7.23;;;6.50;;
8088;SDS011;57635;49.194;12.104;2023-05-10T08:36:26;5.77;;;5.27;;
8088;SDS011;57635;49.194;12.104;2023-05-10T08:38:55;5.57;;;5.17;;
8088;SDS011;57635;49.194;12.104;2023-05-10T08:41:23;6.33;;;5.93;;
8088;SDS011;57635;49.194;12.104;2023-05-10T08:43:52;6.90;;;6.47;;
8088;SDS011;57635;49.194;12.104;2023-05-10T08:46:20;6.53;;;6.03;;
8088;SDS011;57635;49.194;12.104;2023-05-10T08:48:49;6.17;;;5.67;;
8088;SDS011;57635;49.194;12.104;2023-05-10T08:51:18;6.50;;;6.00;;
8088;SDS011;57635;49.194;12.104;2023-05-10T08:53:47;5.40;;;4.90;;
8088;SDS011;57635;49.194;12.104;2023-05-10T08:56:16;4.27;;;3.87;;
8088;SDS011;57635;49.194;12.104;2023-05-10T08:58:46;3.97;;;3.77;;
8088;SDS011;57635;49.194;12.104;2023-05-10T09:01:15;4.07;;;3.57;;
8088;SDS011;57635;49.194;12.104;2023-05-10T09:03:45;3.80;;;3.43;;
8088;SDS011;57635;49.194;12.104;2023-05-10T09:06:13;2.57;;;2.47;;
8088;SDS011;57635;49.194;12.104;2023-05-10T09:08:42;2.73;;;2.53;;
8088;SDS011;57635;49.194;12.104;2023-05-10T09:11:11;2.80;;;2.63;;
8088;SDS011;57635;49.194;12.104;2023-05-10T09:13:40;2.07;;;1.97;;
8088;SDS011;57635;49.194;12.104;2023-05-10T09:16:09;1.77;;;1.77;;
8088;SDS011;57635;49.194;12.104;2023-05-10T09:18:46;1.57;;;1.47;;
8088;SDS011;57635;49.194;12.104;2023-05-10T09:21:15;1.70;;;1.60;;
8088;SDS011;57635;49.194;12.104;2023-05-10T09:23:43;2.90;;;1.60;;
8088;SDS011;57635;49.194;12.104;2023-05-10T09:26:14;1.27;;;1.27;;
8088;SDS011;57635;49.194;12.104;2023-05-10T09:28:53;1.00;;;1.00;;
8088;SDS011;57635;49.194;12.104;2023-05-10T09:31:21;1.33;;;1.33;;
8088;SDS011;57635;49.194;12.104;2023-05-10T09:33:51;0.83;;;0.83;;
8088;SDS011;57635;49.194;12.104;2023-05-10T09:36:19;1.07;;;1.07;;
8088;SDS011;57635;49.194;12.104;2023-05-10T09:38:47;0.90;;;0.90;;
8088;SDS011;57635;49.194;12.104;2023-05-10T09:41:16;2.40;;;1.00;;
8088;SDS011;57635;49.194;12.104;2023-05-10T09:43:44;1.10;;;1.10;;
8088;SDS011;57635;49.194;12.104;2023-05-10T09:46:14;2.33;;;1.00;;
8088;SDS011;57635;49.194;12.104;2023-05-10T09:48:42;0.80;;;0.80;;
8088;SDS011;57635;49.194;12.104;2023-05-10T09:51:18;0.90;;;0.90;;
8088;SDS011;57635;49.194;12.104;2023-05-10T09:53:46;1.00;;;1.00;;
8088;SDS011;57635;49.194;12.104;2023-05-10T09:59:04;1.97;;;1.17;;
8088;SDS011;57635;49.194;12.104;2023-05-10T10:01:33;1.30;;;1.00;;
8088;SDS011;57635;49.194;12.104;2023-05-10T10:04:02;1.50;;;1.40;;
8088;SDS011;57635;49.194;12.104;2023-05-10T10:06:34;1.03;;;1.03;;
8088;SDS011;57635;49.194;12.104;2023-05-10T10:09:04;1.13;;;1.03;;
8088;SDS011;57635;49.194;12.104;2023-05-10T10:11:33;1.10;;;1.10;;
8088;SDS011;57635;49.194;12.104;2023-05-10T10:14:02;1.10;;;1.10;;
8088;SDS011;57635;49.194;12.104;2023-05-10T10:16:30;1.20;;;1.20;;
8088;SDS011;57635;49.194;12.104;2023-05-10T10:18:59;1.60;;;1.07;;
8088;SDS011;57635;49.194;12.104;2023-05-10T10:21:28;0.90;;;0.90;;
8088;SDS011;57635;49.194;12.104;2023-05-10T10:23:57;2.83;;;0.97;;
8088;SDS011;57635;49.194;12.104;2023-05-10T10:26:24;0.80;;;0.80;;
8088;SDS011;57635;49.194;12.104;2023-05-10T10:28:56;1.00;;;1.00;;
8088;SDS011;57635;49.194;12.104;2023-05-10T10:31:30;1.07;;;1.07;;
8088;SDS011;57635;49.194;12.104;2023-05-10T10:34:03;1.33;;;1.03;;
8088;SDS011;57635;49.194;12.104;2023-05-10T10:36:33;1.00;;;1.00;;
8088;SDS011;57635;49.194;12.104;2023-05-10T10:39:09;1.37;;;1.00;;
8088;SDS011;57635;49.194;12.104;2023-05-10T10:41:38;0.77;;;0.77;;
8088;SDS011;57635;49.194;12.104;2023-05-10T10:44:22;3.17;;;1.77;;
8088;SDS011;57635;49.194;12.104;2023-05-10T10:50:06;3.67;;;1.00;;
8088;SDS011;57635;49.194;12.104;2023-05-10T10:52:36;3.43;;;1.50;;
8088;SDS011;57635;49.194;12.104;2023-05-10T10:55:05;1.20;;;1.20;;
8088;SDS011;57635;49.194;12.104;2023-05-10T10:57:42;1.40;;;1.30;;
8088;SDS011;57635;49.194;12.104;2023-05-10T11:00:21;3.23;;;1.40;;
8088;SDS011;57635;49.194;12.104;2023-05-10T11:02:55;1.10;;;1.10;;
8088;SDS011;57635;49.194;12.104;2023-05-10T11:08:10;1.17;;;1.17;;
8088;SDS011;57635;49.194;12.104;2023-05-10T11:10:40;3.10;;;1.57;;
8088;SDS011;57635;49.194;12.104;2023-05-10T11:13:16;1.17;;;1.17;;
8088;SDS011;57635;49.194;12.104;2023-05-10T11:15:48;0.90;;;0.90;;
8088;SDS011;57635;49.194;12.104;2023-05-10T11:18:17;1.13;;;1.07;;
8088;SDS011;57635;49.194;12.104;2023-05-10T11:20:51;2.00;;;0.90;;
8088;SDS011;57635;49.194;12.104;2023-05-10T11:23:19;2.40;;;1.10;;
8088;SDS011;57635;49.194;12.104;2023-05-10T11:25:48;0.83;;;0.83;;
8088;SDS011;57635;49.194;12.104;2023-05-10T11:28:16;1.63;;;0.80;;
8088;SDS011;57635;49.194;12.104;2023-05-10T11:30:44;0.80;;;0.80;;
8088;SDS011;57635;49.194;12.104;2023-05-10T11:33:16;0.87;;;0.87;;
8088;SDS011;57635;49.194;12.104;2023-05-10T11:35:45;1.63;;;1.00;;
8088;SDS011;57635;49.194;12.104;2023-05-10T11:38:15;1.00;;;1.00;;
8088;SDS011;57635;49.194;12.104;2023-05-10T11:40:43;1.90;;;1.80;;
8088;SDS011;57635;49.194;12.104;2023-05-10T11:43:11;2.23;;;2.03;;
8088;SDS011;57635;49.194;12.104;2023-05-10T11:45:41;1.77;;;1.50;;
8088;SDS011;57635;49.194;12.104;2023-05-10T11:48:09;2.00;;;1.90;;
8088;SDS011;57635;49.194;12.104;2023-05-10T11:50:37;2.10;;;2.00;;
8088;SDS011;57635;49.194;12.104;2023-05-10T11:53:05;3.50;;;2.10;;
8088;SDS011;57635;49.194;12.104;2023-05-10T11:55:34;3.30;;;2.40;;
8088;SDS011;57635;49.194;12.104;2023-05-10T11:58:02;2.00;;;1.90;;
8088;SDS011;57635;49.194;12.104;2023-05-10T12:00:30;2.60;;;2.20;;
8088;SDS011;57635;49.194;12.104;2023-05-10T12:02:59;3.10;;;2.40;;
8088;SDS011;57635;49.194;12.104;2023-05-10T12:05:28;4.43;;;2.50;;
8088;SDS011;57635;49.194;12.104;2023-05-10T12:08:12;3.73;;;1.50;;
8088;SDS011;57635;49.194;12.104;2023-05-10T12:10:41;1.93;;;1.40;;
8088;SDS011;57635;49.194;12.104;2023-05-10T12:13:12;4.77;;;1.87;;
8088;SDS011;57635;49.194;12.104;2023-05-10T12:15:41;1.30;;;1.20;;
8088;SDS011;57635;49.194;12.104;2023-05-10T12:18:10;1.33;;;1.20;;
8088;SDS011;57635;49.194;12.104;2023-05-10T12:20:38;1.00;;;1.00;;
8088;SDS011;57635;49.194;12.104;2023-05-10T12:23:08;3.73;;;1.30;;
8088;SDS011;57635;49.194;12.104;2023-05-10T12:25:36;2.20;;;1.47;;
8088;SDS011;57635;49.194;12.104;2023-05-10T12:28:06;2.20;;;1.67;;
8088;SDS011;57635;49.194;12.104;2023-05-10T12:30:36;1.47;;;1.47;;
8088;SDS011;57635;49.194;12.104;2023-05-10T12:33:07;1.60;;;1.50;;
8088;SDS011;57635;49.194;12.104;2023-05-10T12:35:43;2.20;;;2.10;;
8088;SDS011;57635;49.194;12.104;2023-05-10T12:38:25;1.43;;;1.43;;
8088;SDS011;57635;49.194;12.104;2023-05-10T12:40:55;1.30;;;1.30;;
8088;SDS011;57635;49.194;12.104;2023-05-10T12:43:25;2.00;;;1.00;;
8088;SDS011;57635;49.194;12.104;2023-05-10T12:45:53;1.37;;;1.37;;
8088;SDS011;57635;49.194;12.104;2023-05-10T12:48:21;1.37;;;1.37;;
8088;SDS011;57635;49.194;12.104;2023-05-10T12:50:49;1.13;;;1.13;;
8088;SDS011;57635;49.194;12.104;2023-05-10T12:53:16;2.23;;;2.10;;
8088;SDS011;57635;49.194;12.104;2023-05-10T12:55:45;2.63;;;2.10;;
8088;SDS011;57635;49.194;12.104;2023-05-10T12:58:12;1.57;;;1.57;;
8088;SDS011;57635;49.194;12.104;2023-05-10T13:00:58;2.33;;;2.20;;
8088;SDS011;57635;49.194;12.104;2023-05-10T13:03:26;1.67;;;1.60;;
8088;SDS011;57635;49.194;12.104;2023-05-10T13:05:54;2.97;;;2.77;;
8088;SDS011;57635;49.194;12.104;2023-05-10T13:08:22;1.23;;;1.23;;
8088;SDS011;57635;49.194;12.104;2023-05-10T13:10:50;2.27;;;2.17;;
8088;SDS011;57635;49.194;12.104;2023-05-10T13:13:17;1.90;;;1.60;;
8088;SDS011;57635;49.194;12.104;2023-05-10T13:15:45;1.70;;;1.60;;
8088;SDS011;57635;49.194;12.104;2023-05-10T13:18:14;1.50;;;1.40;;
8088;SDS011;57635;49.194;12.104;2023-05-10T13:20:42;1.57;;;1.50;;
8088;SDS011;57635;49.194;12.104;2023-05-10T13:23:10;2.00;;;1.90;;
8088;SDS011;57635;49.194;12.104;2023-05-10T13:25:39;1.40;;;1.40;;
8088;SDS011;57635;49.194;12.104;2023-05-10T13:28:07;1.70;;;1.60;;
8088;SDS011;57635;49.194;12.104;2023-05-10T13:30:35;3.40;;;1.30;;
8088;SDS011;57635;49.194;12.104;2023-05-10T13:33:03;1.93;;;1.63;;
8088;SDS011;57635;49.194;12.104;2023-05-10T13:35:32;1.53;;;1.37;;
8088;SDS011;57635;49.194;12.104;2023-05-10T13:38:00;1.30;;;1.20;;
8088;SDS011;57635;49.194;12.104;2023-05-10T13:40:27;1.50;;;1.47;;
8088;SDS011;57635;49.194;12.104;2023-05-10T13:42:55;1.17;;;1.17;;
8088;SDS011;57635;49.194;12.104;2023-05-10T13:45:23;2.10;;;2.00;;
8088;SDS011;57635;49.194;12.104;2023-05-10T13:47:50;1.80;;;1.20;;
8088;SDS011;57635;49.194;12.104;2023-05-10T13:50:18;1.60;;;1.50;;
8088;SDS011;57635;49.194;12.104;2023-05-10T13:52:48;1.37;;;1.37;;
8088;SDS011;57635;49.194;12.104;2023-05-10T13:55:16;1.97;;;1.37;;
8088;SDS011;57635;49.194;12.104;2023-05-10T13:57:44;1.37;;;1.20;;
8088;SDS011;57635;49.194;12.104;2023-05-10T14:00:12;1.20;;;1.20;;
8088;SDS011;57635;49.194;12.104;2023-05-10T14:02:41;1.73;;;1.33;;
8088;SDS011;57635;49.194;12.104;2023-05-10T14:05:09;1.60;;;1.60;;
8088;SDS011;57635;49.194;12.104;2023-05-10T14:07:37;1.20;;;1.10;;
8088;SDS011;57635;49.194;12.104;2023-05-10T14:10:07;1.30;;;1.20;;
8088;SDS011;57635;49.194;12.104;2023-05-10T14:12:35;2.47;;;1.43;;
8088;SDS011;57635;49.194;12.104;2023-05-10T14:15:03;1.43;;;1.43;;
8088;SDS011;57635;49.194;12.104;2023-05-10T14:17:33;1.40;;;1.30;;
8088;SDS011;57635;49.194;12.104;2023-05-10T14:20:00;1.70;;;1.60;;
8088;SDS011;57635;49.194;12.104;2023-05-10T14:22:29;1.57;;;1.43;;
8088;SDS011;57635;49.194;12.104;2023-05-10T14:24:57;1.50;;;1.50;;
8088;SDS011;57635;49.194;12.104;2023-05-10T14:27:27;2.37;;;1.30;;
8088;SDS011;57635;49.194;12.104;2023-05-10T14:29:54;1.87;;;1.53;;
8088;SDS011;57635;49.194;12.104;2023-05-10T14:32:22;1.70;;;1.33;;
8088;SDS011;57635;49.194;12.104;2023-05-10T14:34:50;1.00;;;1.00;;
8088;SDS011;57635;49.194;12.104;2023-05-10T14:37:18;1.90;;;1.80;;
8088;SDS011;57635;49.194;12.104;2023-05-10T14:39:45;1.30;;;1.30;;
8088;SDS011;57635;49.194;12.104;2023-05-10T14:42:13;1.30;;;1.20;;
8088;SDS011;57635;49.194;12.104;2023-05-10T14:44:42;1.20;;;1.20;;
8088;SDS011;57635;49.194;12.104;2023-05-10T14:47:10;1.57;;;1.47;;
8088;SDS011;57635;49.194;12.104;2023-05-10T14:49:38;1.17;;;1.17;;
8088;SDS011;57635;49.194;12.104;2023-05-10T14:52:05;2.70;;;1.50;;
8088;SDS011;57635;49.194;12.104;2023-05-10T14:54:33;1.30;;;1.30;;
8088;SDS011;57635;49.194;12.104;2023-05-10T14:57:01;1.57;;;1.50;;
8088;SDS011;57635;49.194;12.104;2023-05-10T14:59:29;1.57;;;1.20;;
8088;SDS011;57635;49.194;12.104;2023-05-10T15:01:58;1.50;;;1.43;;
8088;SDS011;57635;49.194;12.104;2023-05-10T15:04:26;1.10;;;1.10;;
8088;SDS011;57635;49.194;12.104;2023-05-10T15:06:54;1.53;;;1.53;;